Terminal Aerodrome Forecast
Issued by NWS

Home | Current Version | Previous Version | Text Only | Print | Product List | Glossary On
Versions: 1 2 3 4 5 6 7 8 9 10 11 12 13 14
000
FTAK31 PANC 291221 AAA
TAFAEN
TAF AMD
PAEN 291221Z 2912/3012 VRB02KT P6SM VCFG FEW008 OVC090
      TEMPO 2913/2917 6SM BR SCT008 BKN035
     FM291800 02009KT P6SM SCT050 BKN080
     FM300900 VRB04KT P6SM VCFG SCT008=

USA.gov is the U.S. government's official web portal to all federal, state and local government web resources and services.